Route Details

Aircraft Information
Group: Trans-Pacific Ops
Types: B744, MD11
Route Data
Distance: 2685nm
Duration: 7h 04m
Origin METAR: OMDB 171100Z 34012KT 8000 NSC 38/25 Q0996 NOSIG
Dest. METAR: EDDK 171120Z AUTO 26005KT 200V330 CAVOK 25/15 Q1011 NOSIG
Freight Data
(for Aug 18, 2022)
Load Factor:
80%
Manifested Cargo: 169,379lbs
Financial History
Total Freight: 0lbs
Average Load: 0lbs/flt
Fuel Used: 0lbs
Avg. Fuel Used: 0lbs/flt
Fuel Expense: $0
Avg. Fuel Expense: $0
Avg. Fuel Cost: $0/lbs
Total Gross Income: $0
Pilot Pay: $0
Total Expenses: $0
Total Revenue: $0
Average Revenue: $0

Capitol Logistics 538




OMDB
Dubai International Airport
Dubai, AE
EDDK
Cologne Bonn Airport
Cologne, DE

Activity Log

Date Flight Route Aircraft Duration
No Flights Yet